sensor_id;sensor_type;location;lat;lon;timestamp;pressure;altitude;pressure_sealevel;temperature;humidity
65553;BME280;52465;51.560;14.368;2023-04-04T00:02:16;101529.72;;;9.45;61.11
65553;BME280;52465;51.560;14.368;2023-04-04T00:04:45;101530.81;;;9.43;61.35
65553;BME280;52465;51.560;14.368;2023-04-04T00:07:10;101511.56;;;9.33;60.65
65553;BME280;52465;51.560;14.368;2023-04-04T00:09:36;101524.63;;;9.44;60.71
65553;BME280;52465;51.560;14.368;2023-04-04T00:12:03;101529.13;;;9.42;61.10
65553;BME280;52465;51.560;14.368;2023-04-04T00:14:29;101525.19;;;9.36;61.28
65553;BME280;52465;51.560;14.368;2023-04-04T00:16:54;101523.06;;;9.41;61.08
65553;BME280;52465;51.560;14.368;2023-04-04T00:19:20;101487.44;;;9.18;61.05
65553;BME280;52465;51.560;14.368;2023-04-04T00:21:48;101528.44;;;9.40;61.39
65553;BME280;52465;51.560;14.368;2023-04-04T00:24:15;101519.41;;;9.33;61.09
65553;BME280;52465;51.560;14.368;2023-04-04T00:26:41;101518.44;;;9.34;60.93
65553;BME280;52465;51.560;14.368;2023-04-04T00:29:06;101524.16;;;9.39;61.17
65553;BME280;52465;51.560;14.368;2023-04-04T00:31:32;101503.94;;;9.30;61.56
65553;BME280;52465;51.560;14.368;2023-04-04T00:33:57;101524.97;;;9.39;60.90
65553;BME280;52465;51.560;14.368;2023-04-04T00:36:23;101477.44;;;9.12;61.35
65553;BME280;52465;51.560;14.368;2023-04-04T00:38:50;101522.59;;;9.36;61.56
65553;BME280;52465;51.560;14.368;2023-04-04T00:50:35;101487.28;;;9.08;62.91
65553;BME280;52465;51.560;14.368;2023-04-04T00:53:01;101489.09;;;9.19;62.40
65553;BME280;52465;51.560;14.368;2023-04-04T00:55:26;101463.69;;;9.10;62.13
65553;BME280;52465;51.560;14.368;2023-04-04T00:57:52;101488.72;;;9.23;61.94
65553;BME280;52465;51.560;14.368;2023-04-04T01:00:18;101515.00;;;9.44;62.22
65553;BME280;52465;51.560;14.368;2023-04-04T01:02:44;101390.03;;;8.60;61.83
65553;BME280;52465;51.560;14.368;2023-04-04T01:05:12;101482.56;;;9.24;62.00
65553;BME280;52465;51.560;14.368;2023-04-04T01:07:40;101486.47;;;9.30;61.23
65553;BME280;52465;51.560;14.368;2023-04-04T01:10:07;101503.47;;;9.36;61.45
65553;BME280;52465;51.560;14.368;2023-04-04T01:12:35;101511.78;;;9.41;61.74
65553;BME280;52465;51.560;14.368;2023-04-04T01:15:01;101505.84;;;9.39;61.78
65553;BME280;52465;51.560;14.368;2023-04-04T01:17:29;101491.47;;;9.33;61.48
65553;BME280;52465;51.560;14.368;2023-04-04T01:20:06;101498.16;;;9.37;61.93
65553;BME280;52465;51.560;14.368;2023-04-04T01:22:36;101503.47;;;9.36;61.78
65553;BME280;52465;51.560;14.368;2023-04-04T01:34:58;101477.81;;;9.18;62.37
65553;BME280;52465;51.560;14.368;2023-04-04T01:40:19;101493.75;;;9.38;62.75
65553;BME280;52465;51.560;14.368;2023-04-04T01:42:50;101492.66;;;9.40;61.79
65553;BME280;52465;51.560;14.368;2023-04-04T01:45:16;101478.75;;;9.28;61.88
65553;BME280;52465;51.560;14.368;2023-04-04T01:47:42;101474.97;;;9.33;61.84
65553;BME280;52465;51.560;14.368;2023-04-04T01:50:33;101491.13;;;9.38;62.27
65553;BME280;52465;51.560;14.368;2023-04-04T01:53:05;101441.56;;;9.02;61.87
65553;BME280;52465;51.560;14.368;2023-04-04T01:55:31;101443.72;;;9.09;61.43
65553;BME280;52465;51.560;14.368;2023-04-04T01:57:56;101482.06;;;9.31;61.76
65553;BME280;52465;51.560;14.368;2023-04-04T02:00:22;101495.06;;;9.32;61.87
65553;BME280;52465;51.560;14.368;2023-04-04T02:02:49;101444.66;;;9.08;61.59
65553;BME280;52465;51.560;14.368;2023-04-04T02:05:14;101475.19;;;9.30;61.73
65553;BME280;52465;51.560;14.368;2023-04-04T02:07:40;101465.47;;;9.20;61.88
65553;BME280;52465;51.560;14.368;2023-04-04T02:10:06;101409.63;;;8.88;61.53
65553;BME280;52465;51.560;14.368;2023-04-04T02:12:32;101474.63;;;9.26;61.87
65553;BME280;52465;51.560;14.368;2023-04-04T02:15:00;101473.06;;;9.23;61.77
65553;BME280;52465;51.560;14.368;2023-04-04T02:17:26;101478.75;;;9.28;61.29
65553;BME280;52465;51.560;14.368;2023-04-04T02:19:52;101449.19;;;9.06;61.53
65553;BME280;52465;51.560;14.368;2023-04-04T02:22:18;101470.22;;;9.26;61.99
65553;BME280;52465;51.560;14.368;2023-04-04T02:24:44;101453.59;;;9.16;61.64
65553;BME280;52465;51.560;14.368;2023-04-04T02:27:29;101465.22;;;9.23;62.00
65553;BME280;52465;51.560;14.368;2023-04-04T02:29:54;101417.81;;;8.94;61.79
65553;BME280;52465;51.560;14.368;2023-04-04T02:32:22;101465.22;;;9.23;61.82
65553;BME280;52465;51.560;14.368;2023-04-04T02:34:48;101464.63;;;9.20;62.10
65553;BME280;52465;51.560;14.368;2023-04-04T02:37:14;101436.34;;;9.02;61.38
65553;BME280;52465;51.560;14.368;2023-04-04T02:39:42;101440.03;;;9.00;61.65
65553;BME280;52465;51.560;14.368;2023-04-04T02:42:08;101464.75;;;9.18;61.90
65553;BME280;52465;51.560;14.368;2023-04-04T02:44:41;101471.53;;;9.21;61.71
65553;BME280;52465;51.560;14.368;2023-04-04T02:49:49;101456.19;;;9.16;61.62
65553;BME280;52465;51.560;14.368;2023-04-04T02:52:15;101422.81;;;8.97;62.11
65553;BME280;52465;51.560;14.368;2023-04-04T02:54:44;101376.97;;;8.60;61.39
65553;BME280;52465;51.560;14.368;2023-04-04T02:57:11;101376.72;;;8.63;61.92
65553;BME280;52465;51.560;14.368;2023-04-04T02:59:37;101366.38;;;8.50;61.84
65553;BME280;52465;51.560;14.368;2023-04-04T03:02:03;101434.69;;;9.01;61.55
65553;BME280;52465;51.560;14.368;2023-04-04T03:04:38;101412.13;;;8.89;61.92
65553;BME280;52465;51.560;14.368;2023-04-04T03:07:10;101428.03;;;8.97;61.65
65553;BME280;52465;51.560;14.368;2023-04-04T03:09:35;101411.28;;;8.89;62.06
65553;BME280;52465;51.560;14.368;2023-04-04T03:12:26;101454.63;;;9.14;62.01
65553;BME280;52465;51.560;14.368;2023-04-04T03:14:51;101455.47;;;9.14;61.80
65553;BME280;52465;51.560;14.368;2023-04-04T03:17:17;101451.44;;;9.10;62.18
65553;BME280;52465;51.560;14.368;2023-04-04T03:19:43;101418.88;;;8.92;61.98
65553;BME280;52465;51.560;14.368;2023-04-04T03:22:10;101439.56;;;9.06;61.85
65553;BME280;52465;51.560;14.368;2023-04-04T03:24:38;101398.69;;;8.71;61.97
65553;BME280;52465;51.560;14.368;2023-04-04T03:27:03;101462.59;;;9.12;62.00
65553;BME280;52465;51.560;14.368;2023-04-04T03:29:30;101363.66;;;8.52;62.18
65553;BME280;52465;51.560;14.368;2023-04-04T03:31:56;101451.44;;;9.10;61.53
65553;BME280;52465;51.560;14.368;2023-04-04T03:34:22;101459.28;;;9.10;61.80
65553;BME280;52465;51.560;14.368;2023-04-04T03:36:49;101453.56;;;9.05;61.78
65553;BME280;52465;51.560;14.368;2023-04-04T03:39:14;101455.72;;;9.11;62.12
65553;BME280;52465;51.560;14.368;2023-04-04T03:41:40;101435.84;;;8.97;62.29
65553;BME280;52465;51.560;14.368;2023-04-04T03:44:20;101450.97;;;9.05;62.27
65553;BME280;52465;51.560;14.368;2023-04-04T03:46:46;101455.94;;;9.08;62.15
65553;BME280;52465;51.560;14.368;2023-04-04T03:49:11;101358.06;;;8.45;62.07
65553;BME280;52465;51.560;14.368;2023-04-04T03:52:02;101454.28;;;9.07;62.29
65553;BME280;52465;51.560;14.368;2023-04-04T03:54:32;101448.22;;;9.07;62.39
65553;BME280;52465;51.560;14.368;2023-04-04T03:56:58;101436.31;;;8.91;61.93
65553;BME280;52465;51.560;14.368;2023-04-04T03:59:24;101423.75;;;8.85;62.76
65553;BME280;52465;51.560;14.368;2023-04-04T04:01:52;101455.25;;;9.06;62.00
65553;BME280;52465;51.560;14.368;2023-04-04T04:04:18;101407.72;;;8.79;62.52
65553;BME280;52465;51.560;14.368;2023-04-04T04:06:43;101436.81;;;8.96;61.95
65553;BME280;52465;51.560;14.368;2023-04-04T04:09:09;101455.38;;;9.05;61.87
65553;BME280;52465;51.560;14.368;2023-04-04T04:11:38;101347.16;;;8.40;62.38
65553;BME280;52465;51.560;14.368;2023-04-04T04:14:03;101453.69;;;9.04;61.87
65553;BME280;52465;51.560;14.368;2023-04-04T04:16:30;101458.19;;;9.01;62.38
65553;BME280;52465;51.560;14.368;2023-04-04T04:18:55;101448.22;;;8.95;62.57
65553;BME280;52465;51.560;14.368;2023-04-04T04:21:21;101454.63;;;9.02;61.96
65553;BME280;52465;51.560;14.368;2023-04-04T04:23:47;101455.38;;;9.05;61.92
65553;BME280;52465;51.560;14.368;2023-04-04T04:26:12;101412.31;;;8.75;61.74
65553;BME280;52465;51.560;14.368;2023-04-04T04:28:38;101434.53;;;8.92;62.58
65553;BME280;52465;51.560;14.368;2023-04-04T04:31:04;101436.94;;;8.84;62.12
65553;BME280;52465;51.560;14.368;2023-04-04T04:33:34;101461.06;;;8.98;62.47
65553;BME280;52465;51.560;14.368;2023-04-04T04:36:18;101452.25;;;8.99;62.28
65553;BME280;52465;51.560;14.368;2023-04-04T04:38:44;101462.84;;;8.98;61.92
65553;BME280;52465;51.560;14.368;2023-04-04T04:41:12;101460.09;;;8.99;62.45
65553;BME280;52465;51.560;14.368;2023-04-04T04:43:37;101415.31;;;8.70;62.32
65553;BME280;52465;51.560;14.368;2023-04-04T04:46:03;101461.06;;;8.98;62.29
65553;BME280;52465;51.560;14.368;2023-04-04T04:48:28;101462.09;;;8.96;62.33
65553;BME280;52465;51.560;14.368;2023-04-04T04:50:56;101473.28;;;8.98;62.27
65553;BME280;52465;51.560;14.368;2023-04-04T04:53:22;101452.13;;;8.90;62.68
65553;BME280;52465;51.560;14.368;2023-04-04T04:55:48;101466.38;;;8.97;61.95
65553;BME280;52465;51.560;14.368;2023-04-04T04:58:16;101470.75;;;8.96;62.55
65553;BME280;52465;51.560;14.368;2023-04-04T05:00:45;101469.22;;;8.94;62.38
65553;BME280;52465;51.560;14.368;2023-04-04T05:03:12;101474.34;;;8.95;62.14
65553;BME280;52465;51.560;14.368;2023-04-04T05:05:52;101453.19;;;8.87;62.64
65553;BME280;52465;51.560;14.368;2023-04-04T05:08:18;101429.53;;;8.66;62.33
65553;BME280;52465;51.560;14.368;2023-04-04T05:10:44;101421.88;;;8.52;62.31
65553;BME280;52465;51.560;14.368;2023-04-04T05:13:13;101463.88;;;8.84;62.20
65553;BME280;52465;51.560;14.368;2023-04-04T05:15:40;101484.91;;;8.94;62.60
65553;BME280;52465;51.560;14.368;2023-04-04T05:27:45;101448.59;;;8.56;63.68
65553;BME280;52465;51.560;14.368;2023-04-04T05:30:12;101493.91;;;8.90;63.25
65553;BME280;52465;51.560;14.368;2023-04-04T05:32:39;101476.91;;;8.84;63.09
65553;BME280;52465;51.560;14.368;2023-04-04T05:35:06;101464.94;;;8.82;62.69
65553;BME280;52465;51.560;14.368;2023-04-04T05:37:32;101500.09;;;9.00;62.69
65553;BME280;52465;51.560;14.368;2023-04-04T05:54:57;101507.66;;;8.92;62.78
65553;BME280;52465;51.560;14.368;2023-04-04T05:57:23;101507.94;;;9.00;62.55
65553;BME280;52465;51.560;14.368;2023-04-04T05:59:48;101516.59;;;9.00;62.51
65553;BME280;52465;51.560;14.368;2023-04-04T06:02:14;101512.22;;;9.01;62.60
65553;BME280;52465;51.560;14.368;2023-04-04T06:12:14;101483.78;;;8.74;62.83
65553;BME280;52465;51.560;14.368;2023-04-04T06:14:58;101505.34;;;9.00;62.95
65553;BME280;52465;51.560;14.368;2023-04-04T06:17:24;101504.22;;;8.91;62.71
65553;BME280;52465;51.560;14.368;2023-04-04T06:19:49;101503.44;;;9.02;62.49
65553;BME280;52465;51.560;14.368;2023-04-04T06:22:15;101505.09;;;9.03;62.63
65553;BME280;52465;51.560;14.368;2023-04-04T06:24:45;101472.88;;;8.80;62.46
65553;BME280;52465;51.560;14.368;2023-04-04T06:27:13;101505.34;;;9.00;62.10
65553;BME280;52465;51.560;14.368;2023-04-04T06:29:39;101493.69;;;8.93;62.22
65553;BME280;52465;51.560;14.368;2023-04-04T06:41:26;101499.59;;;8.84;63.20
65553;BME280;52465;51.560;14.368;2023-04-04T06:43:52;101477.25;;;8.80;62.61
65553;BME280;52465;51.560;14.368;2023-04-04T06:46:18;101501.16;;;8.97;62.50
65553;BME280;52465;51.560;14.368;2023-04-04T06:57:11;101448.41;;;8.59;62.74
65553;BME280;52465;51.560;14.368;2023-04-04T06:59:37;101436.06;;;8.61;62.75
65553;BME280;52465;51.560;14.368;2023-04-04T07:02:03;101483.25;;;8.93;61.97
65553;BME280;52465;51.560;14.368;2023-04-04T07:04:29;101488.97;;;8.98;62.47
65553;BME280;52465;51.560;14.368;2023-04-04T07:06:59;101457.66;;;8.74;61.80
65553;BME280;52465;51.560;14.368;2023-04-04T07:16:33;101487.03;;;8.89;62.63
65553;BME280;52465;51.560;14.368;2023-04-04T07:19:01;101481.19;;;8.85;62.70
65553;BME280;52465;51.560;14.368;2023-04-04T07:21:26;101485.84;;;8.93;62.48
65553;BME280;52465;51.560;14.368;2023-04-04T07:23:53;101497.50;;;9.00;62.09
65553;BME280;52465;51.560;14.368;2023-04-04T07:26:18;101491.56;;;8.98;62.03
65553;BME280;52465;51.560;14.368;2023-04-04T07:28:44;101500.09;;;9.00;61.57
65553;BME280;52465;51.560;14.368;2023-04-04T07:31:10;101493.44;;;8.96;61.89
65553;BME280;52465;51.560;14.368;2023-04-04T07:33:35;101497.72;;;8.97;61.93
65553;BME280;52465;51.560;14.368;2023-04-04T07:36:01;101490.00;;;8.95;61.33
65553;BME280;52465;51.560;14.368;2023-04-04T07:38:27;101480.72;;;8.91;61.65
65553;BME280;52465;51.560;14.368;2023-04-04T07:40:53;101484.91;;;8.94;61.42
65553;BME280;52465;51.560;14.368;2023-04-04T07:43:20;101478.91;;;8.81;61.43
65553;BME280;52465;51.560;14.368;2023-04-04T07:45:46;101443.53;;;8.65;61.24
65553;BME280;52465;51.560;14.368;2023-04-04T07:48:11;101402.19;;;8.37;61.72
65553;BME280;52465;51.560;14.368;2023-04-04T07:50:36;101461.09;;;8.74;61.34
65553;BME280;52465;51.560;14.368;2023-04-04T07:53:27;101492.00;;;8.92;62.24
65553;BME280;52465;51.560;14.368;2023-04-04T07:55:53;101489.38;;;8.92;61.51
65553;BME280;52465;51.560;14.368;2023-04-04T07:58:43;101486.91;;;8.90;61.50
65553;BME280;52465;51.560;14.368;2023-04-04T08:01:12;101486.91;;;8.90;61.63
65553;BME280;52465;51.560;14.368;2023-04-04T08:03:37;101478.13;;;8.91;61.63
65553;BME280;52465;51.560;14.368;2023-04-04T08:06:03;101484.41;;;8.89;61.71
65553;BME280;52465;51.560;14.368;2023-04-04T08:08:31;101482.75;;;8.88;61.47
65553;BME280;52465;51.560;14.368;2023-04-04T08:10:57;101429.50;;;8.55;61.78
65553;BME280;52465;51.560;14.368;2023-04-04T08:13:23;101430.94;;;8.59;61.35
65553;BME280;52465;51.560;14.368;2023-04-04T08:15:49;101454.06;;;8.64;61.54
65553;BME280;52465;51.560;14.368;2023-04-04T08:18:14;101446.84;;;8.67;61.58
65553;BME280;52465;51.560;14.368;2023-04-04T08:20:40;101481.09;;;8.87;62.02
65553;BME280;52465;51.560;14.368;2023-04-04T08:23:08;101479.41;;;8.86;61.63
65553;BME280;52465;51.560;14.368;2023-04-04T08:25:34;101474.56;;;8.81;61.69
65553;BME280;52465;51.560;14.368;2023-04-04T08:28:03;101470.16;;;8.82;61.49
65553;BME280;52465;51.560;14.368;2023-04-04T08:30:29;101455.19;;;8.72;61.71
65553;BME280;52465;51.560;14.368;2023-04-04T08:32:56;101465.66;;;8.84;61.75
65553;BME280;52465;51.560;14.368;2023-04-04T08:35:21;101470.75;;;8.85;61.46
65553;BME280;52465;51.560;14.368;2023-04-04T08:37:47;101436.41;;;8.67;61.47
65553;BME280;52465;51.560;14.368;2023-04-04T08:40:15;101452.59;;;8.84;62.42
65553;BME280;52465;51.560;14.368;2023-04-04T08:42:41;101464.34;;;8.89;61.97
65553;BME280;52465;51.560;14.368;2023-04-04T08:45:11;101445.44;;;8.74;61.85
65553;BME280;52465;51.560;14.368;2023-04-04T08:47:37;101449.03;;;8.85;61.98
65553;BME280;52465;51.560;14.368;2023-04-04T08:50:07;101462.44;;;8.91;62.00
65553;BME280;52465;51.560;14.368;2023-04-04T08:52:34;101446.66;;;8.82;61.69
65553;BME280;52465;51.560;14.368;2023-04-04T08:55:05;101455.34;;;8.93;61.98
65553;BME280;52465;51.560;14.368;2023-04-04T08:57:31;101439.41;;;8.85;61.62
65553;BME280;52465;51.560;14.368;2023-04-04T08:59:57;101430.53;;;8.88;61.71
65553;BME280;52465;51.560;14.368;2023-04-04T09:02:29;101347.81;;;8.31;61.44
65553;BME280;52465;51.560;14.368;2023-04-04T09:04:57;101432.31;;;8.87;61.74
65553;BME280;52465;51.560;14.368;2023-04-04T09:07:24;101438.03;;;8.92;61.64
65553;BME280;52465;51.560;14.368;2023-04-04T09:09:51;101454.53;;;9.04;61.97
65553;BME280;52465;51.560;14.368;2023-04-04T09:12:18;101422.56;;;8.89;61.43
65553;BME280;52465;51.560;14.368;2023-04-04T09:14:47;101425.19;;;8.89;61.91
65553;BME280;52465;51.560;14.368;2023-04-04T09:17:15;101423.16;;;8.82;61.65
65553;BME280;52465;51.560;14.368;2023-04-04T09:19:40;101445.13;;;9.01;61.65
65553;BME280;52465;51.560;14.368;2023-04-04T09:22:07;101413.66;;;8.81;61.68
65553;BME280;52465;51.560;14.368;2023-04-04T09:24:40;101448.56;;;9.02;62.21
65553;BME280;52465;51.560;14.368;2023-04-04T09:27:10;101447.63;;;9.03;61.43
65553;BME280;52465;51.560;14.368;2023-04-04T09:29:37;101402.38;;;8.80;62.18
65553;BME280;52465;51.560;14.368;2023-04-04T09:32:03;101432.78;;;8.92;62.09
65553;BME280;52465;51.560;14.368;2023-04-04T09:34:31;101408.41;;;8.81;61.34
65553;BME280;52465;51.560;14.368;2023-04-04T09:36:58;101439.22;;;8.99;61.57
65553;BME280;52465;51.560;14.368;2023-04-04T09:39:27;101444.31;;;9.01;61.64
65553;BME280;52465;51.560;14.368;2023-04-04T09:41:53;101437.91;;;9.05;61.27
65553;BME280;52465;51.560;14.368;2023-04-04T09:44:19;101451.09;;;9.15;61.34
65553;BME280;52465;51.560;14.368;2023-04-04T09:46:47;101449.31;;;9.15;62.13
65553;BME280;52465;51.560;14.368;2023-04-04T09:49:19;101425.53;;;8.96;61.47
65553;BME280;52465;51.560;14.368;2023-04-04T09:51:48;101452.63;;;9.17;61.63
65553;BME280;52465;51.560;14.368;2023-04-04T09:54:20;101446.44;;;9.18;61.80
65553;BME280;52465;51.560;14.368;2023-04-04T09:56:47;101433.16;;;9.10;61.54
65553;BME280;52465;51.560;14.368;2023-04-04T09:59:16;101443.63;;;9.21;61.75
65553;BME280;52465;51.560;14.368;2023-04-04T10:01:47;101444.31;;;9.23;61.24
65553;BME280;52465;51.560;14.368;2023-04-04T10:04:15;101436.00;;;9.18;61.79
65553;BME280;52465;51.560;14.368;2023-04-04T10:06:42;101439.78;;;9.14;61.77
65553;BME280;52465;51.560;14.368;2023-04-04T10:09:11;101404.91;;;9.04;61.50
65553;BME280;52465;51.560;14.368;2023-04-04T10:11:39;101442.41;;;9.25;61.96
65553;BME280;52465;51.560;14.368;2023-04-04T10:14:04;101436.47;;;9.23;61.77
65553;BME280;52465;51.560;14.368;2023-04-04T10:16:32;101435.66;;;9.23;62.01
65553;BME280;52465;51.560;14.368;2023-04-04T10:19:00;101448.50;;;9.26;61.69
65553;BME280;52465;51.560;14.368;2023-04-04T10:21:26;101416.53;;;9.11;61.68
65553;BME280;52465;51.560;14.368;2023-04-04T10:23:55;101409.41;;;9.13;61.26
65553;BME280;52465;51.560;14.368;2023-04-04T10:26:22;101426.28;;;9.20;62.00
65553;BME280;52465;51.560;14.368;2023-04-04T10:28:50;101426.84;;;9.24;61.49
65553;BME280;52465;51.560;14.368;2023-04-04T10:31:24;101439.34;;;9.32;62.03
65553;BME280;52465;51.560;14.368;2023-04-04T10:34:17;101434.94;;;9.32;62.25
65553;BME280;52465;51.560;14.368;2023-04-04T10:36:48;101412.50;;;9.18;62.00
65553;BME280;52465;51.560;14.368;2023-04-04T10:39:20;101431.25;;;9.35;62.03
65553;BME280;52465;51.560;14.368;2023-04-04T10:41:49;101419.97;;;9.34;61.79
65553;BME280;52465;51.560;14.368;2023-04-04T10:44:28;101418.66;;;9.28;61.83
65553;BME280;52465;51.560;14.368;2023-04-04T10:47:01;101410.13;;;9.26;61.60
65553;BME280;52465;51.560;14.368;2023-04-04T10:49:29;101405.59;;;9.28;61.25
65553;BME280;52465;51.560;14.368;2023-04-04T10:51:56;101373.78;;;9.12;61.36
65553;BME280;52465;51.560;14.368;2023-04-04T10:54:25;101392.66;;;9.27;61.45
65553;BME280;52465;51.560;14.368;2023-04-04T10:56:56;101392.53;;;9.28;61.52
65553;BME280;52465;51.560;14.368;2023-04-04T10:59:24;101396.31;;;9.36;61.21
65553;BME280;52465;51.560;14.368;2023-04-04T11:01:55;101391.09;;;9.36;61.33
65553;BME280;52465;51.560;14.368;2023-04-04T11:04:29;101408.91;;;9.42;61.42
65553;BME280;52465;51.560;14.368;2023-04-04T11:07:12;101400.13;;;9.43;60.95
65553;BME280;52465;51.560;14.368;2023-04-04T11:09:55;101395.84;;;9.42;60.97
65553;BME280;52465;51.560;14.368;2023-04-04T11:26:41;101356.16;;;9.37;60.78
65553;BME280;52465;51.560;14.368;2023-04-04T11:29:19;101370.91;;;9.49;60.58
65553;BME280;52465;51.560;14.368;2023-04-04T11:31:47;101343.47;;;9.32;60.88
65553;BME280;52465;51.560;14.368;2023-04-04T11:34:36;101364.72;;;9.50;61.35
65553;BME280;52465;51.560;14.368;2023-04-04T11:37:14;101343.06;;;9.48;61.00
65553;BME280;52465;51.560;14.368;2023-04-04T11:39:47;101346.97;;;9.53;60.97
65553;BME280;52465;51.560;14.368;2023-04-04T11:42:14;101355.41;;;9.57;60.98
65553;BME280;52465;51.560;14.368;2023-04-04T11:47:47;101339.22;;;9.63;60.93
65553;BME280;52465;51.560;14.368;2023-04-04T11:50:14;101343.50;;;9.64;60.70
65553;BME280;52465;51.560;14.368;2023-04-04T11:52:40;101347.91;;;9.64;60.62
65553;BME280;52465;51.560;14.368;2023-04-04T11:55:17;101337.34;;;9.65;61.12
65553;BME280;52465;51.560;14.368;2023-04-04T11:57:45;101327.13;;;9.62;60.51
65553;BME280;52465;51.560;14.368;2023-04-04T12:00:27;101329.09;;;9.70;60.83
65553;BME280;52465;51.560;14.368;2023-04-04T12:02:49;101315.25;;;9.58;60.90
65553;BME280;52465;51.560;14.368;2023-04-04T12:05:15;101291.50;;;9.50;60.81
65553;BME280;52465;51.560;14.368;2023-04-04T12:07:41;101247.31;;;9.15;60.76
65553;BME280;52465;51.560;14.368;2023-04-04T12:10:08;101324.00;;;9.68;60.73
65553;BME280;52465;51.560;14.368;2023-04-04T12:12:39;101320.44;;;9.69;60.66
65553;BME280;52465;51.560;14.368;2023-04-04T12:15:06;101324.91;;;9.78;60.94
65553;BME280;52465;51.560;14.368;2023-04-04T12:17:38;101317.75;;;9.80;60.71
65553;BME280;52465;51.560;14.368;2023-04-04T12:20:09;101296.19;;;9.67;60.87
65553;BME280;52465;51.560;14.368;2023-04-04T12:22:35;101317.53;;;9.84;60.93
65553;BME280;52465;51.560;14.368;2023-04-04T12:25:02;101310.88;;;9.79;60.51
65553;BME280;52465;51.560;14.368;2023-04-04T12:27:27;101320.59;;;9.89;60.22
65553;BME280;52465;51.560;14.368;2023-04-04T12:29:55;101317.03;;;9.90;60.29
65553;BME280;52465;51.560;14.368;2023-04-04T12:32:21;101301.69;;;9.85;60.67
65553;BME280;52465;51.560;14.368;2023-04-04T12:34:47;101293.84;;;9.85;60.58
65553;BME280;52465;51.560;14.368;2023-04-04T12:37:16;101313.22;;;9.94;60.37
65553;BME280;52465;51.560;14.368;2023-04-04T12:39:47;101300.19;;;9.83;60.63
65553;BME280;52465;51.560;14.368;2023-04-04T12:42:19;101296.16;;;9.78;60.60
65553;BME280;52465;51.560;14.368;2023-04-04T12:44:45;101292.56;;;9.79;60.85
65553;BME280;52465;51.560;14.368;2023-04-04T12:47:12;101319.25;;;9.94;60.58
65553;BME280;52465;51.560;14.368;2023-04-04T12:49:41;101295.06;;;9.81;60.53
65553;BME280;52465;51.560;14.368;2023-04-04T12:52:22;101301.19;;;9.91;60.53
65553;BME280;52465;51.560;14.368;2023-04-04T12:54:50;101297.63;;;9.92;60.69
65553;BME280;52465;51.560;14.368;2023-04-04T12:57:21;101270.13;;;9.77;60.71
65553;BME280;52465;51.560;14.368;2023-04-04T12:59:48;101296.94;;;9.90;60.46
65553;BME280;52465;51.560;14.368;2023-04-04T13:02:19;101300.13;;;9.94;60.84
65553;BME280;52465;51.560;14.368;2023-04-04T13:04:46;101278.31;;;9.84;60.89
65553;BME280;52465;51.560;14.368;2023-04-04T13:07:27;101295.97;;;9.91;60.86
65553;BME280;52465;51.560;14.368;2023-04-04T13:09:56;101300.00;;;9.95;60.81
65553;BME280;52465;51.560;14.368;2023-04-04T13:12:22;101286.22;;;9.93;60.87
65553;BME280;52465;51.560;14.368;2023-04-04T13:15:02;101299.84;;;9.97;60.37
65553;BME280;52465;51.560;14.368;2023-04-04T13:17:44;101276.38;;;9.86;60.75
65553;BME280;52465;51.560;14.368;2023-04-04T13:20:12;101283.47;;;9.95;60.48
65553;BME280;52465;51.560;14.368;2023-04-04T13:22:39;101248.72;;;9.83;60.61
65553;BME280;52465;51.560;14.368;2023-04-04T13:25:06;101279.75;;;9.97;60.49
65553;BME280;52465;51.560;14.368;2023-04-04T13:27:32;101276.31;;;9.97;60.78
65553;BME280;52465;51.560;14.368;2023-04-04T13:29:58;101270.53;;;9.93;60.60
65553;BME280;52465;51.560;14.368;2023-04-04T13:32:24;101284.63;;;10.02;60.61
65553;BME280;52465;51.560;14.368;2023-04-04T13:34:50;101254.63;;;9.85;60.69
65553;BME280;52465;51.560;14.368;2023-04-04T13:37:16;101262.53;;;9.95;60.42
65553;BME280;52465;51.560;14.368;2023-04-04T13:39:41;101251.03;;;9.86;60.72
65553;BME280;52465;51.560;14.368;2023-04-04T13:42:10;101245.97;;;9.85;60.41
65553;BME280;52465;51.560;14.368;2023-04-04T13:44:35;101264.78;;;9.99;60.80
65553;BME280;52465;51.560;14.368;2023-04-04T13:47:01;101270.56;;;10.03;60.79
65553;BME280;52465;51.560;14.368;2023-04-04T13:49:27;101241.16;;;9.90;60.44
65553;BME280;52465;51.560;14.368;2023-04-04T13:51:52;101243.97;;;9.98;60.36
65553;BME280;52465;51.560;14.368;2023-04-04T13:54:18;101202.84;;;9.79;60.65
65553;BME280;52465;51.560;14.368;2023-04-04T13:56:44;101235.88;;;10.01;60.37
65553;BME280;52465;51.560;14.368;2023-04-04T13:59:10;101248.44;;;10.07;60.82
65553;BME280;52465;51.560;14.368;2023-04-04T14:01:37;101244.03;;;10.07;60.69
65553;BME280;52465;51.560;14.368;2023-04-04T14:04:02;101247.47;;;10.08;60.61
65553;BME280;52465;51.560;14.368;2023-04-04T14:06:28;101213.38;;;9.89;60.37
65553;BME280;52465;51.560;14.368;2023-04-04T14:08:54;101197.38;;;9.82;60.53
65553;BME280;52465;51.560;14.368;2023-04-04T14:11:19;101241.56;;;10.06;60.63
65553;BME280;52465;51.560;14.368;2023-04-04T14:13:46;101214.88;;;9.91;60.44
65553;BME280;52465;51.560;14.368;2023-04-04T14:16:11;101199.13;;;9.81;60.27
65553;BME280;52465;51.560;14.368;2023-04-04T14:18:37;101184.66;;;9.77;60.56
65553;BME280;52465;51.560;14.368;2023-04-04T14:21:08;101232.88;;;10.05;60.43
65553;BME280;52465;51.560;14.368;2023-04-04T14:23:34;101224.31;;;10.03;60.87
65553;BME280;52465;51.560;14.368;2023-04-04T14:25:59;101230.38;;;10.04;60.38
65553;BME280;52465;51.560;14.368;2023-04-04T14:28:24;101225.41;;;10.01;60.60
65553;BME280;52465;51.560;14.368;2023-04-04T14:30:51;101221.31;;;10.08;60.70
65553;BME280;52465;51.560;14.368;2023-04-04T14:33:16;101190.34;;;9.83;60.59
65553;BME280;52465;51.560;14.368;2023-04-04T14:35:44;101224.06;;;10.06;60.71